Terminal Aerodrome Forecast
Issued by NWS Wilmington, NC

Home | Current Version | Previous Version | Text Only | Print | Product List | Glossary On
Versions: 1 2 3 4 5 6 7 8 9 10 11 12 13 14 15 16 17
000
FTUS42 KILM 161700
TAFFLO
TAF
KFLO 161721Z 1618/1718 04012G20KT P6SM SKC
     FM162100 04008KT P6SM FEW035
     FM171300 05011G17KT P6SM BKN050=

USA.gov is the U.S. government's official web portal to all federal, state and local government web resources and services.